Time;durP1;ratioP1;P1;durP2;ratioP2;P2;SDS_P1;SDS_P2;PMS_P1;PMS_P2;Temp;Humidity;BMP_temperature;BMP_pressure;BME280_temperature;BME280_humidity;BME280_pressure;Samples;Min_cycle;Max_cycle;Signal;HPM_P1;HPM_P2
2023/08/17 00:00:03;;;;;;;4.43;4.03;;;;;;;20.48;74.46;93651.81;514075;28;896;-44
2023/08/17 00:00:19;;;;;;;4.97;4.50;;;;;;;20.46;74.43;93641.22;514146;28;883;-45
2023/08/17 00:00:34;;;;;;;5.03;4.53;;;;;;;20.46;74.45;93649.63;514106;28;872;-46
2023/08/17 00:00:51;;;;;;;4.82;4.32;;;;;;;20.45;74.52;93650.97;514111;28;872;-45
2023/08/17 00:01:06;;;;;;;4.53;4.10;;;;;;;20.46;74.47;93643.28;513949;28;813;-46
2023/08/17 00:01:22;;;;;;;4.30;3.90;;;;;;;20.46;74.53;93638.41;514105;28;876;-45
2023/08/17 00:01:37;;;;;;;4.27;3.87;;;;;;;20.46;74.53;93646.09;514171;28;840;-45
2023/08/17 00:01:52;;;;;;;4.68;4.28;;;;;;;20.45;74.49;93642.53;514040;28;1104;-46
2023/08/17 00:02:08;;;;;;;4.77;4.30;;;;;;;20.44;74.51;93655.13;514104;28;864;-48
2023/08/17 00:02:23;;;;;;;5.13;4.27;;;;;;;20.44;74.58;93643.91;514092;28;820;-48
2023/08/17 00:02:42;;;;;;;5.78;4.22;;;;;;;20.45;74.55;93647.41;514120;28;896;-45
2023/08/17 00:02:57;;;;;;;4.20;3.80;;;;;;;20.45;74.62;93644.63;514050;28;1193;-46
2023/08/17 00:03:13;;;;;;;4.28;3.97;;;;;;;20.45;74.61;93650.97;514029;28;892;-46
2023/08/17 00:03:28;;;;;;;4.38;3.97;;;;;;;20.45;74.55;93645.34;514102;28;888;-46
2023/08/17 00:03:44;;;;;;;4.60;4.20;;;;;;;20.44;74.63;93655.13;514189;28;783;-45
2023/08/17 00:03:59;;;;;;;4.88;4.47;;;;;;;20.44;74.61;93655.13;514212;28;836;-45
2023/08/17 00:04:14;;;;;;;4.73;4.33;;;;;;;20.44;74.69;93646.72;514109;28;927;-46
2023/08/17 00:04:30;;;;;;;5.10;4.43;;;;;;;20.45;74.72;93644.63;514072;28;859;-45
2023/08/17 00:04:45;;;;;;;5.05;4.43;;;;;;;20.44;74.72;93651.56;514096;28;848;-45
2023/08/17 00:05:00;;;;;;;4.73;4.33;;;;;;;20.43;74.75;93653.66;514129;28;862;-46
2023/08/17 00:05:16;;;;;;;4.97;4.50;;;;;;;20.43;74.75;93650.84;514165;28;981;-46
2023/08/17 00:05:32;;;;;;;4.63;4.20;;;;;;;20.42;74.71;93647.28;514107;28;789;-45
2023/08/17 00:05:48;;;;;;;4.38;3.97;;;;;;;20.42;74.85;93655.72;514118;28;811;-46
2023/08/17 00:06:03;;;;;;;4.53;4.13;;;;;;;20.42;74.86;93652.91;514100;28;883;-45
2023/08/17 00:06:19;;;;;;;4.77;4.33;;;;;;;20.42;74.83;93645.84;513708;28;1396;-44
2023/08/17 00:06:34;;;;;;;4.73;4.30;;;;;;;20.42;75.00;93657.81;514172;28;784;-46
2023/08/17 00:06:49;;;;;;;4.70;4.30;;;;;;;20.41;74.91;93647.91;514114;28;804;-45
2023/08/17 00:07:05;;;;;;;4.90;4.50;;;;;;;20.41;74.82;93650.72;514084;28;888;-46
2023/08/17 00:07:20;;;;;;;4.60;4.20;;;;;;;20.40;74.86;93649.25;514083;28;1175;-45
2023/08/17 00:07:36;;;;;;;4.47;3.97;;;;;;;20.40;74.92;93646.44;514082;28;883;-44
2023/08/17 00:07:51;;;;;;;5.05;4.20;;;;;;;20.40;74.85;93652.78;514145;28;807;-45
2023/08/17 00:08:07;;;;;;;4.63;4.23;;;;;;;20.41;75.04;93650.72;514131;28;941;-45
2023/08/17 00:08:22;;;;;;;4.13;3.83;;;;;;;20.40;75.09;93660.47;514133;28;872;-45
2023/08/17 00:08:37;;;;;;;4.13;3.75;;;;;;;20.39;75.08;93654.13;514065;28;915;-44
2023/08/17 00:08:53;;;;;;;4.40;4.00;;;;;;;20.39;75.02;93650.59;514119;28;868;-45
2023/08/17 00:09:09;;;;;;;4.43;3.90;;;;;;;20.40;75.08;93646.44;514134;28;856;-47
2023/08/17 00:09:25;;;;;;;4.63;4.00;;;;;;;20.39;75.04;93647.78;514036;28;914;-46
2023/08/17 00:09:40;;;;;;;4.97;4.37;;;;;;;20.38;75.09;93647.06;514043;28;876;-44
2023/08/17 00:09:55;;;;;;;4.90;4.50;;;;;;;20.39;74.98;93647.78;514133;28;903;-45
2023/08/17 00:10:11;;;;;;;4.63;4.22;;;;;;;20.37;74.97;93642.81;514065;28;873;-45
2023/08/17 00:10:26;;;;;;;4.87;4.37;;;;;;;20.39;74.82;93653.41;514140;28;852;-44
2023/08/17 00:10:42;;;;;;;4.87;4.37;;;;;;;20.38;74.76;93651.94;514155;28;789;-46
2023/08/17 00:10:57;;;;;;;4.20;3.83;;;;;;;20.35;74.65;93645.50;514084;28;852;-45
2023/08/17 00:11:12;;;;;;;3.83;3.53;;;;;;;20.37;74.68;93648.41;514073;28;1026;-46
2023/08/17 00:11:28;;;;;;;4.30;3.90;;;;;;;20.38;74.48;93654.72;514093;28;902;-46
2023/08/17 00:11:43;;;;;;;4.28;3.92;;;;;;;20.38;74.43;93654.72;514085;28;935;-45
2023/08/17 00:11:59;;;;;;;4.27;3.87;;;;;;;20.37;74.46;93654.03;514180;28;807;-45
2023/08/17 00:12:14;;;;;;;4.40;4.00;;;;;;;20.36;74.50;93649.75;514154;28;1092;-45
2023/08/17 00:12:29;;;;;;;4.63;4.22;;;;;;;20.35;74.33;93653.91;514181;28;785;-44
2023/08/17 00:12:45;;;;;;;4.93;4.33;;;;;;;20.35;74.47;93659.50;514163;28;816;-45
2023/08/17 00:13:02;;;;;;;4.37;3.97;;;;;;;20.37;74.37;93658.88;514101;28;1038;-44
2023/08/17 00:13:17;;;;;;;3.95;3.65;;;;;;;20.37;74.26;93658.88;514160;28;836;-45
2023/08/17 00:13:32;;;;;;;4.53;4.13;;;;;;;20.37;74.27;93656.09;514081;28;772;-44
2023/08/17 00:13:48;;;;;;;4.63;4.23;;;;;;;20.38;74.21;93665.94;514145;28;764;-45
2023/08/17 00:14:04;;;;;;;4.38;4.00;;;;;;;20.37;74.28;93658.88;513957;28;1088;-45
2023/08/17 00:14:19;;;;;;;4.20;3.80;;;;;;;20.36;74.15;93655.34;514091;28;876;-45
2023/08/17 00:14:34;;;;;;;4.10;3.70;;;;;;;20.33;74.18;93650.97;514155;28;1054;-45
2023/08/17 00:14:50;;;;;;;4.10;3.70;;;;;;;20.30;74.04;93646.56;513930;28;1906;-46
2023/08/17 00:15:06;;;;;;;4.50;4.10;;;;;;;20.35;74.02;93662.31;514197;28;854;-46
2023/08/17 00:15:21;;;;;;;4.82;4.43;;;;;;;20.35;73.94;93658.78;514021;28;1522;-45
2023/08/17 00:15:37;;;;;;;4.10;3.80;;;;;;;20.35;73.80;93659.50;514067;28;976;-45
2023/08/17 00:15:52;;;;;;;4.00;3.70;;;;;;;20.35;73.74;93653.16;514019;28;1021;-46
2023/08/17 00:16:08;;;;;;;4.38;3.97;;;;;;;20.34;73.62;93658.03;514076;28;1152;-45
2023/08/17 00:16:23;;;;;;;4.60;4.20;;;;;;;20.35;73.58;93655.97;514011;28;868;-46
2023/08/17 00:16:38;;;;;;;4.70;4.30;;;;;;;20.33;73.38;93659.38;514135;28;820;-45
2023/08/17 00:16:54;;;;;;;4.72;4.30;;;;;;;20.33;73.44;93664.25;514095;28;886;-45
2023/08/17 00:17:09;;;;;;;4.57;4.17;;;;;;;20.32;73.40;93657.16;514081;28;887;-44
2023/08/17 00:17:24;;;;;;;4.43;4.03;;;;;;;20.31;73.40;93653.63;513974;28;850;-45
2023/08/17 00:17:40;;;;;;;4.70;4.20;;;;;;;20.32;73.43;93657.16;514104;28;855;-45
2023/08/17 00:17:55;;;;;;;5.00;4.00;;;;;;;20.31;73.63;93652.91;514122;28;765;-46
2023/08/17 00:18:11;;;;;;;4.67;4.03;;;;;;;20.32;73.51;93662.78;514149;28;757;-45
2023/08/17 00:18:26;;;;;;;4.65;4.20;;;;;;;20.31;73.57;93658.53;514117;28;946;-46
2023/08/17 00:18:41;;;;;;;4.30;3.90;;;;;;;20.30;73.67;93654.97;514084;28;844;-46
2023/08/17 00:18:57;;;;;;;4.30;3.90;;;;;;;20.30;73.70;93657.06;514086;28;900;-46
2023/08/17 00:19:12;;;;;;;4.38;3.97;;;;;;;20.30;73.84;93657.06;514057;28;1000;-47
2023/08/17 00:19:27;;;;;;;4.53;4.13;;;;;;;20.30;73.75;93657.06;514076;28;1161;-45
2023/08/17 00:19:43;;;;;;;4.57;4.17;;;;;;;20.30;73.81;93654.25;514046;28;884;-44
2023/08/17 00:19:58;;;;;;;4.72;4.05;;;;;;;20.30;73.88;93660.59;514092;28;868;-46
2023/08/17 00:20:14;;;;;;;4.83;4.13;;;;;;;20.30;73.92;93657.78;514075;28;864;-47
2023/08/17 00:20:29;;;;;;;4.47;4.07;;;;;;;20.30;74.07;93662.66;514069;28;897;-46
2023/08/17 00:20:45;;;;;;;4.70;4.22;;;;;;;20.29;74.27;93659.13;514081;28;922;-45
2023/08/17 00:21:00;;;;;;;4.80;4.40;;;;;;;20.29;74.29;93655.59;514083;28;825;-46
2023/08/17 00:21:16;;;;;;;4.50;4.10;;;;;;;20.29;74.49;93653.50;514085;28;935;-46
2023/08/17 00:21:31;;;;;;;4.30;3.90;;;;;;;20.30;74.45;93657.06;513898;28;2454;-46
2023/08/17 00:21:47;;;;;;;4.50;4.10;;;;;;;20.27;74.57;93656.19;514134;28;1076;-44
2023/08/17 00:22:02;;;;;;;4.73;4.33;;;;;;;20.25;74.50;93649.72;514000;28;906;-45
2023/08/17 00:22:18;;;;;;;4.43;4.05;;;;;;;20.28;74.57;93659.72;514196;28;822;-45
2023/08/17 00:22:33;;;;;;;4.30;3.93;;;;;;;20.29;74.57;93661.22;514150;28;765;-45
2023/08/17 00:22:49;;;;;;;4.63;4.13;;;;;;;20.28;74.67;93662.53;514099;28;915;-47
2023/08/17 00:23:04;;;;;;;4.88;4.35;;;;;;;20.28;74.67;93657.66;514083;28;788;-46
2023/08/17 00:23:20;;;;;;;5.00;4.50;;;;;;;20.30;74.67;93657.06;514174;28;789;-44
2023/08/17 00:23:36;;;;;;;4.53;4.13;;;;;;;20.28;74.60;93654.13;514133;28;797;-47
2023/08/17 00:23:51;;;;;;;4.40;4.00;;;;;;;20.30;74.64;93657.06;514086;28;896;-48
2023/08/17 00:24:07;;;;;;;4.67;4.20;;;;;;;20.29;74.62;93661.91;514066;28;864;-46
2023/08/17 00:24:22;;;;;;;5.05;4.20;;;;;;;20.30;74.61;93657.06;514076;28;1165;-46
2023/08/17 00:24:38;;;;;;;4.83;4.20;;;;;;;20.29;74.56;93664.72;514081;28;1148;-47
2023/08/17 00:24:53;;;;;;;4.68;4.22;;;;;;;20.29;74.61;93656.31;514085;28;801;-46
2023/08/17 00:25:09;;;;;;;4.73;4.17;;;;;;;20.29;74.48;93661.22;514103;28;1006;-48
2023/08/17 00:25:24;;;;;;;4.57;4.10;;;;;;;20.28;74.47;93660.47;514076;28;855;-46
2023/08/17 00:25:39;;;;;;;4.43;4.03;;;;;;;20.29;74.47;93658.41;514098;28;947;-45
2023/08/17 00:25:55;;;;;;;4.50;4.10;;;;;;;20.28;74.54;93659.72;514164;28;1052;-45
2023/08/17 00:26:10;;;;;;;4.60;4.20;;;;;;;20.28;74.43;93662.53;514124;28;826;-47
2023/08/17 00:26:25;;;;;;;4.40;4.00;;;;;;;20.28;74.46;93665.34;514152;28;804;-46
2023/08/17 00:26:41;;;;;;;4.30;3.90;;;;;;;20.28;74.40;93659.72;514055;28;828;-44
2023/08/17 00:26:56;;;;;;;4.25;3.92;;;;;;;20.27;74.44;93656.19;514077;28;856;-45
2023/08/17 00:27:12;;;;;;;4.43;4.03;;;;;;;20.27;74.40;93658.28;514041;28;1557;-45
2023/08/17 00:27:27;;;;;;;4.73;4.33;;;;;;;20.27;74.25;93656.19;514119;28;833;-47
2023/08/17 00:27:42;;;;;;;4.57;4.18;;;;;;;20.27;74.31;93652.66;514022;28;1519;-45
2023/08/17 00:27:58;;;;;;;4.35;3.95;;;;;;;20.26;74.14;93659.59;514160;28;841;-47
2023/08/17 00:28:14;;;;;;;4.40;4.00;;;;;;;20.26;74.29;93656.81;514111;28;962;-46
2023/08/17 00:28:29;;;;;;;4.28;3.95;;;;;;;20.25;74.17;93660.94;514124;28;1265;-45
2023/08/17 00:28:44;;;;;;;4.37;3.97;;;;;;;20.24;74.18;93665.09;514077;28;872;-45
2023/08/17 00:29:00;;;;;;;4.40;4.05;;;;;;;20.22;74.24;93657.28;514153;28;754;-45
2023/08/17 00:29:15;;;;;;;4.37;3.97;;;;;;;20.22;74.33;93653.75;514107;28;749;-44
2023/08/17 00:29:30;;;;;;;4.13;3.80;;;;;;;20.22;74.18;93656.56;514074;28;825;-45
2023/08/17 00:29:46;;;;;;;4.15;3.85;;;;;;;20.21;74.16;93660.69;514046;28;812;-45
2023/08/17 00:30:01;;;;;;;4.60;4.20;;;;;;;20.20;74.40;93657.19;514055;28;854;-48
2023/08/17 00:30:16;;;;;;;4.90;4.40;;;;;;;20.19;74.37;93654.94;514140;28;856;-45
2023/08/17 00:30:35;;;;;;;5.28;4.32;;;;;;;20.19;74.57;93660.53;514111;28;824;-45
2023/08/17 00:30:51;;;;;;;6.35;4.30;;;;;;;20.19;74.32;93661.28;514053;28;876;-46
2023/08/17 00:31:06;;;;;;;4.60;4.20;;;;;;;20.19;74.35;93654.94;514078;28;864;-45
2023/08/17 00:31:22;;;;;;;4.40;4.10;;;;;;;20.18;74.37;93654.19;514027;28;937;-45
2023/08/17 00:31:37;;;;;;;4.15;3.75;;;;;;;20.18;74.31;93659.09;514024;28;852;-45
2023/08/17 00:31:52;;;;;;;4.33;3.80;;;;;;;20.17;74.34;93652.00;514056;28;883;-47
2023/08/17 00:32:08;;;;;;;4.57;4.00;;;;;;;20.15;74.16;93651.88;514132;28;915;-45
2023/08/17 00:32:23;;;;;;;4.22;3.83;;;;;;;20.14;74.15;93656.03;514048;28;951;-46
2023/08/17 00:32:38;;;;;;;4.03;3.70;;;;;;;20.14;74.19;93653.22;514103;28;794;-45
2023/08/17 00:32:54;;;;;;;4.20;3.80;;;;;;;20.14;74.16;93656.03;514154;28;771;-45
2023/08/17 00:33:10;;;;;;;4.22;3.83;;;;;;;20.14;74.14;93656.03;514063;28;803;-45
2023/08/17 00:33:25;;;;;;;4.00;3.60;;;;;;;20.14;74.16;93656.75;514024;28;832;-45
2023/08/17 00:33:40;;;;;;;4.13;3.60;;;;;;;20.13;74.12;93652.50;514156;28;982;-45
2023/08/17 00:33:56;;;;;;;4.33;3.83;;;;;;;20.12;74.12;93653.81;514139;28;779;-45
2023/08/17 00:34:11;;;;;;;3.93;3.60;;;;;;;20.11;74.18;93657.25;514088;28;864;-45
2023/08/17 00:34:27;;;;;;;3.95;3.65;;;;;;;20.10;74.24;93656.50;514026;28;1046;-45
2023/08/17 00:34:42;;;;;;;4.57;4.18;;;;;;;20.09;74.25;93652.25;513952;28;1911;-45
2023/08/17 00:34:58;;;;;;;4.40;4.00;;;;;;;20.02;74.21;93644.78;514129;28;814;-44
2023/08/17 00:35:13;;;;;;;4.20;3.83;;;;;;;20.08;74.42;93653.56;514115;28;785;-44
2023/08/17 00:35:29;;;;;;;4.45;4.05;;;;;;;20.03;74.37;93651.16;514091;28;853;-47
2023/08/17 00:35:45;;;;;;;4.47;4.00;;;;;;;20.07;74.45;93649.31;514090;28;876;-46
2023/08/17 00:36:01;;;;;;;5.05;4.10;;;;;;;20.07;74.50;93652.13;514103;28;860;-46
2023/08/17 00:36:16;;;;;;;5.03;3.90;;;;;;;20.07;74.45;93657.00;514061;28;812;-45
2023/08/17 00:36:31;;;;;;;4.30;3.87;;;;;;;20.06;74.34;93652.72;514042;28;852;-46
2023/08/17 00:36:47;;;;;;;4.28;3.88;;;;;;;20.05;74.41;93654.06;514125;28;887;-45
2023/08/17 00:37:03;;;;;;;4.63;3.90;;;;;;;20.04;74.42;93653.31;513968;28;874;-45
2023/08/17 00:37:18;;;;;;;5.55;4.10;;;;;;;20.04;74.59;93652.59;514084;28;779;-45
2023/08/17 00:37:33;;;;;;;4.80;4.13;;;;;;;20.04;74.66;93653.31;513980;28;844;-45
2023/08/17 00:37:49;;;;;;;5.33;4.20;;;;;;;20.02;75.04;93658.06;514097;28;795;-45
2023/08/17 00:38:04;;;;;;;5.05;4.00;;;;;;;20.02;75.04;93646.88;514083;28;867;-45
2023/08/17 00:38:19;;;;;;;4.40;4.00;;;;;;;20.01;75.22;93654.53;514142;28;852;-45
2023/08/17 00:38:35;;;;;;;4.70;4.20;;;;;;;20.01;75.22;93646.13;514033;28;824;-45
2023/08/17 00:38:50;;;;;;;4.50;4.10;;;;;;;20.00;75.40;93649.53;514102;28;868;-46
2023/08/17 00:39:05;;;;;;;4.33;3.93;;;;;;;19.99;75.60;93645.28;514099;28;852;-45
2023/08/17 00:39:21;;;;;;;3.93;3.60;;;;;;;19.99;75.49;93653.69;514035;28;817;-48
2023/08/17 00:39:36;;;;;;;3.90;3.50;;;;;;;19.98;75.57;93649.41;513997;28;990;-47
2023/08/17 00:39:52;;;;;;;4.27;3.87;;;;;;;19.99;75.67;93650.91;514041;28;1449;-45
2023/08/17 00:40:07;;;;;;;4.33;3.93;;;;;;;19.99;75.60;93662.81;513971;28;835;-47
2023/08/17 00:40:23;;;;;;;5.15;4.03;;;;;;;19.99;75.59;93656.50;513996;28;959;-45
2023/08/17 00:40:38;;;;;;;6.63;3.93;;;;;;;20.00;75.59;93655.16;514035;28;896;-45
2023/08/17 00:40:55;;;;;;;5.13;3.55;;;;;;;19.99;75.68;93650.91;514048;28;809;-47
2023/08/17 00:41:10;;;;;;;4.00;3.60;;;;;;;19.98;75.61;93646.63;514086;28;891;-46
2023/08/17 00:41:25;;;;;;;4.28;3.80;;;;;;;19.99;75.68;93656.50;514067;28;805;-45
2023/08/17 00:41:41;;;;;;;4.00;3.60;;;;;;;19.97;75.68;93648.69;514007;28;918;-46
2023/08/17 00:41:56;;;;;;;3.67;3.37;;;;;;;19.97;75.73;93640.28;513947;28;1207;-45
2023/08/17 00:42:12;;;;;;;4.07;3.53;;;;;;;19.97;75.83;93643.06;514054;28;1619;-45
2023/08/17 00:42:27;;;;;;;3.77;3.40;;;;;;;19.96;75.77;93646.50;514090;28;777;-44
2023/08/17 00:42:42;;;;;;;3.60;3.30;;;;;;;19.97;75.54;93651.47;514086;28;803;-46
2023/08/17 00:42:58;;;;;;;4.70;3.92;;;;;;;19.97;75.77;93647.94;514054;28;840;-44
2023/08/17 00:43:13;;;;;;;5.13;4.28;;;;;;;19.96;75.80;93646.50;514010;28;891;-45
2023/08/17 00:43:28;;;;;;;4.73;4.03;;;;;;;19.95;75.70;93648.56;514005;28;1111;-47
2023/08/17 00:43:44;;;;;;;4.03;3.63;;;;;;;19.95;75.71;93651.34;514090;28;777;-46
2023/08/17 00:44:00;;;;;;;3.90;3.60;;;;;;;19.94;75.70;93644.31;514034;28;873;-44
2023/08/17 00:44:15;;;;;;;3.95;3.65;;;;;;;19.95;75.70;93659.03;514108;28;815;-45
2023/08/17 00:44:30;;;;;;;4.37;3.93;;;;;;;19.93;75.60;93650.50;514074;28;824;-45
2023/08/17 00:44:46;;;;;;;4.90;4.40;;;;;;;19.93;75.61;93644.88;514006;28;891;-44
2023/08/17 00:45:02;;;;;;;4.70;4.30;;;;;;;19.93;75.66;93642.09;513926;28;931;-45
2023/08/17 00:45:18;;;;;;;4.20;3.80;;;;;;;19.92;75.74;93649.78;514044;28;915;-45
2023/08/17 00:45:34;;;;;;;4.10;3.70;;;;;;;19.90;75.79;93643.31;513963;28;876;-47
2023/08/17 00:45:50;;;;;;;4.22;3.80;;;;;;;19.91;75.93;93651.09;513864;28;974;-45
2023/08/17 00:46:05;;;;;;;4.40;4.00;;;;;;;19.92;76.04;93643.44;513912;28;805;-45
2023/08/17 00:46:22;;;;;;;4.23;3.83;;;;;;;19.92;76.02;93649.03;513911;28;934;-46
2023/08/17 00:46:38;;;;;;;4.20;3.80;;;;;;;19.92;75.94;93646.25;511836;29;952;-44
2023/08/17 00:46:54;;;;;;;4.22;3.83;;;;;;;19.92;75.90;93646.97;511797;29;1069;-45
2023/08/17 00:47:09;;;;;;;4.35;3.95;;;;;;;19.92;75.99;93644.19;511910;29;857;-44
2023/08/17 00:47:25;;;;;;;4.93;4.17;;;;;;;19.93;76.09;93642.09;511806;29;900;-46
2023/08/17 00:47:41;;;;;;;4.90;4.23;;;;;;;19.92;76.07;93651.84;512453;28;871;-45
2023/08/17 00:47:57;;;;;;;4.35;3.92;;;;;;;19.92;76.14;93652.59;511868;29;963;-44
2023/08/17 00:48:13;;;;;;;4.47;4.07;;;;;;;19.91;76.15;93645.50;509942;29;873;-45
2023/08/17 00:48:29;;;;;;;5.33;4.10;;;;;;;19.92;76.18;93646.25;509935;29;944;-45
2023/08/17 00:48:44;;;;;;;5.85;3.85;;;;;;;19.92;76.25;93646.97;509856;29;946;-46
2023/08/17 00:49:00;;;;;;;4.75;4.05;;;;;;;19.92;76.25;93643.44;509886;29;849;-44
2023/08/17 00:49:15;;;;;;;5.07;4.23;;;;;;;19.88;76.26;93641.09;510452;29;898;-45
2023/08/17 00:49:31;;;;;;;5.83;4.43;;;;;;;19.93;76.39;93650.50;511759;29;861;-45
2023/08/17 00:49:47;;;;;;;5.38;4.25;;;;;;;19.93;76.35;93653.28;512442;28;884;-45
2023/08/17 00:50:03;;;;;;;4.13;3.78;;;;;;;19.90;76.32;93644.06;511874;29;837;-46
2023/08/17 00:50:18;;;;;;;4.13;3.72;;;;;;;19.92;76.41;93646.25;512363;28;952;-45
2023/08/17 00:50:34;;;;;;;3.97;3.57;;;;;;;19.91;76.35;93645.50;513941;28;904;-45
2023/08/17 00:50:52;;;;;;;4.05;3.72;;;;;;;19.92;76.31;93654.66;513828;28;912;-44
2023/08/17 00:51:07;;;;;;;4.47;3.90;;;;;;;19.93;76.23;93653.28;513843;28;903;-44
2023/08/17 00:51:23;;;;;;;4.27;3.80;;;;;;;19.92;76.06;93646.97;513855;28;856;-45
2023/08/17 00:51:39;;;;;;;4.38;3.97;;;;;;;19.93;76.01;93647.69;513944;28;880;-46
2023/08/17 00:51:54;;;;;;;4.40;4.00;;;;;;;19.93;75.91;93644.88;512662;28;787;-45
2023/08/17 00:52:10;;;;;;;4.53;3.70;;;;;;;19.93;75.85;93639.28;513870;28;851;-45
2023/08/17 00:52:26;;;;;;;4.25;3.65;;;;;;;19.92;75.93;93649.78;513866;28;849;-45
2023/08/17 00:52:41;;;;;;;4.40;4.00;;;;;;;19.92;75.96;93646.97;511796;29;849;-45
2023/08/17 00:52:57;;;;;;;4.50;4.07;;;;;;;19.92;76.10;93646.97;511808;29;951;-46
2023/08/17 00:53:13;;;;;;;4.40;3.88;;;;;;;19.92;76.02;93646.97;511924;29;876;-45
2023/08/17 00:53:29;;;;;;;4.03;3.67;;;;;;;19.93;76.02;93644.88;511759;29;861;-45
2023/08/17 00:53:45;;;;;;;4.10;3.70;;;;;;;19.93;76.00;93653.28;511823;29;952;-47
2023/08/17 00:54:01;;;;;;;5.35;4.18;;;;;;;19.91;76.01;93647.56;511866;29;966;-45
2023/08/17 00:54:24;;;;;;;5.20;4.13;;;;;;;19.92;76.05;93646.97;509892;29;995;-45
2023/08/17 00:54:39;;;;;;;4.07;3.72;;;;;;;19.93;75.91;93648.44;509470;29;1973;-46
2023/08/17 00:54:55;;;;;;;4.17;3.77;;;;;;;19.93;75.95;93645.63;509874;29;892;-45
2023/08/17 00:55:11;;;;;;;5.18;4.05;;;;;;;19.94;75.72;93649.16;509823;29;877;-47
2023/08/17 00:55:27;;;;;;;4.53;3.70;;;;;;;19.92;75.74;93641.38;509865;29;843;-45
2023/08/17 00:55:42;;;;;;;4.28;3.88;;;;;;;19.93;75.56;93645.63;507924;29;986;-44
2023/08/17 00:55:58;;;;;;;4.63;4.20;;;;;;;19.93;75.36;93650.50;508000;29;868;-45
2023/08/17 00:56:14;;;;;;;3.92;3.55;;;;;;;19.93;75.40;93650.50;509326;29;975;-47
2023/08/17 00:56:29;;;;;;;3.53;3.23;;;;;;;19.91;75.29;93644.75;508591;29;794;-45
2023/08/17 00:56:45;;;;;;;3.58;3.28;;;;;;;19.91;75.16;93650.38;509879;29;911;-45
2023/08/17 00:57:00;;;;;;;4.03;3.70;;;;;;;19.89;75.19;93648.19;509928;29;861;-45
2023/08/17 00:57:16;;;;;;;4.00;3.70;;;;;;;19.89;75.18;93647.44;509855;29;819;-44
2023/08/17 00:57:32;;;;;;;4.07;3.72;;;;;;;19.85;75.18;93642.31;510292;29;821;-46
2023/08/17 00:57:48;;;;;;;4.22;3.83;;;;;;;19.87;75.14;93641.72;510416;29;939;-44
2023/08/17 00:58:03;;;;;;;3.85;3.47;;;;;;;19.87;75.17;93642.44;511866;28;892;-45
2023/08/17 00:58:21;;;;;;;3.77;3.47;;;;;;;19.87;75.22;93644.50;512362;28;798;-45
2023/08/17 00:58:36;;;;;;;4.05;3.65;;;;;;;19.86;75.09;93649.38;513846;28;884;-45
2023/08/17 00:58:52;;;;;;;4.07;3.67;;;;;;;19.86;74.97;93643.06;513841;28;866;-46
2023/08/17 00:59:07;;;;;;;4.30;3.90;;;;;;;19.87;74.79;93645.25;511887;28;788;-45
2023/08/17 00:59:23;;;;;;;3.87;3.57;;;;;;;19.86;74.53;93651.47;511775;28;1694;-45
2023/08/17 00:59:38;;;;;;;3.72;3.42;;;;;;;19.84;74.66;93649.25;512515;28;868;-45
2023/08/17 00:59:54;;;;;;;4.07;3.67;;;;;;;19.83;74.64;93639.41;513817;28;979;-45
2023/08/17 01:00:11;;;;;;;4.05;3.67;;;;;;;19.84;74.68;93642.94;513863;28;818;-46
2023/08/17 01:00:28;;;;;;;4.57;3.88;;;;;;;19.85;74.71;93644.38;513769;28;939;-46
2023/08/17 01:00:43;;;;;;;4.67;3.87;;;;;;;19.84;74.72;93640.13;511856;28;864;-46
2023/08/17 01:00:59;;;;;;;4.03;3.63;;;;;;;19.84;74.72;93645.75;510607;29;794;-45
2023/08/17 01:01:14;;;;;;;4.00;3.60;;;;;;;19.83;74.80;93645.00;511777;29;840;-46
2023/08/17 01:01:30;;;;;;;4.30;3.90;;;;;;;19.82;74.88;93643.53;511802;29;840;-44
2023/08/17 01:01:46;;;;;;;4.27;3.87;;;;;;;19.82;74.87;93643.53;509881;29;1640;-47
2023/08/17 01:02:02;;;;;;;4.32;3.92;;;;;;;19.83;74.98;93641.47;509855;29;1069;-45
2023/08/17 01:02:18;;;;;;;4.45;4.05;;;;;;;19.82;75.09;93643.53;509870;29;921;-45
2023/08/17 01:02:34;;;;;;;4.25;3.85;;;;;;;19.81;75.03;93644.13;508496;29;884;-45
2023/08/17 01:02:51;;;;;;;4.53;3.80;;;;;;;19.81;75.10;93644.88;510467;29;857;-45
2023/08/17 01:03:06;;;;;;;5.47;3.85;;;;;;;19.81;75.16;93646.94;509907;29;907;-45
2023/08/17 01:03:23;;;;;;;5.25;3.97;;;;;;;19.81;75.06;93644.13;509890;29;809;-46
2023/08/17 01:03:40;;;;;;;4.22;3.78;;;;;;;19.81;75.34;93638.53;510816;29;940;-48
2023/08/17 01:03:56;;;;;;;5.53;3.78;;;;;;;19.81;75.02;93639.28;511952;28;862;-46
2023/08/17 01:04:11;;;;;;;6.35;4.10;;;;;;;19.80;75.13;93640.59;511906;28;809;-47
2023/08/17 01:04:26;;;;;;;5.10;3.93;;;;;;;19.73;75.09;93635.22;511847;28;880;-45
2023/08/17 01:04:42;;;;;;;4.35;3.95;;;;;;;19.79;74.97;93638.41;511873;29;950;-46
2023/08/17 01:04:57;;;;;;;4.47;4.07;;;;;;;19.80;75.09;93640.59;512022;29;793;-45
2023/08/17 01:05:13;;;;;;;4.05;3.65;;;;;;;19.79;75.06;93639.16;511983;28;1087;-45
2023/08/17 01:05:30;;;;;;;4.10;3.50;;;;;;;19.79;75.00;93641.94;511971;29;793;-44
2023/08/17 01:05:46;;;;;;;4.25;3.80;;;;;;;19.80;75.01;93640.59;511974;28;1602;-45
2023/08/17 01:06:02;;;;;;;4.13;3.72;;;;;;;19.79;75.00;93638.41;511976;28;1094;-46
2023/08/17 01:06:18;;;;;;;4.35;3.55;;;;;;;19.73;74.86;93629.63;511875;29;1175;-45
2023/08/17 01:06:34;;;;;;;4.55;3.72;;;;;;;19.79;74.89;93638.41;513984;28;846;-45
2023/08/17 01:06:49;;;;;;;4.50;4.10;;;;;;;19.78;74.70;93640.47;514054;28;854;-45
2023/08/17 01:07:04;;;;;;;4.78;4.28;;;;;;;19.78;74.73;93636.94;514044;28;837;-45
2023/08/17 01:07:21;;;;;;;4.30;3.90;;;;;;;19.73;74.64;93635.94;513981;28;1218;-44
2023/08/17 01:07:37;;;;;;;4.28;3.88;;;;;;;19.75;74.73;93638.88;513927;28;1004;-45
2023/08/17 01:07:53;;;;;;;4.45;4.00;;;;;;;19.75;74.73;93641.66;514059;28;811;-44
2023/08/17 01:08:08;;;;;;;4.33;3.93;;;;;;;19.75;74.81;93638.16;514067;28;843;-45
2023/08/17 01:08:24;;;;;;;4.40;4.00;;;;;;;19.75;74.89;93632.56;514045;28;808;-46
2023/08/17 01:08:41;;;;;;;4.00;3.60;;;;;;;19.77;74.87;93638.28;513969;28;880;-47
2023/08/17 01:08:57;;;;;;;4.35;3.40;;;;;;;19.76;74.75;93634.75;515871;28;987;-45
2023/08/17 01:09:13;;;;;;;4.47;3.50;;;;;;;19.77;74.75;93632.69;515835;28;928;-45
2023/08/17 01:09:28;;;;;;;4.15;3.75;;;;;;;19.65;74.74;93624.22;515841;28;887;-46
2023/08/17 01:09:44;;;;;;;4.13;3.72;;;;;;;19.73;74.82;93626.81;515854;28;923;-45
2023/08/17 01:09:59;;;;;;;3.90;3.53;;;;;;;19.76;74.72;93634.00;513756;28;1142;-45
2023/08/17 01:10:15;;;;;;;4.20;3.80;;;;;;;19.74;74.83;93631.06;513896;28;749;-45
2023/08/17 01:10:49;;;;;;;4.27;3.97;;;;;;;19.75;74.74;93640.97;513790;28;864;-45
2023/08/17 01:11:13;;;;;;;4.85;3.50;;;;;;;19.76;74.70;93634.75;511837;28;825;-44
2023/08/17 01:11:35;;;;;;;4.20;3.80;;;;;;;19.75;74.70;93636.06;511806;29;979;-45
2023/08/17 01:11:59;;;;;;;4.63;3.92;;;;;;;19.75;74.67;93636.06;512428;28;896;-44
2023/08/17 01:12:31;;;;;;;4.03;3.63;;;;;;;19.76;74.73;93639.59;513797;28;967;-44
2023/08/17 01:12:55;;;;;;;4.00;3.40;;;;;;;19.75;74.71;93633.25;515799;28;823;-45
2023/08/17 01:13:23;;;;;;;4.47;4.07;;;;;;;19.74;74.70;93631.06;515827;28;1388;-45
2023/08/17 01:13:46;;;;;;;4.32;3.92;;;;;;;19.75;74.82;93638.16;515809;28;955;-46
2023/08/17 01:14:29;;;;;;;4.55;4.15;;;;;;;19.74;74.94;93636.69;515752;28;1452;-45
2023/08/17 01:15:15;;;;;;;5.10;3.95;;;;;;;19.70;74.94;93625.97;515773;28;1910;-45
2023/08/17 01:15:36;;;;;;;3.63;3.33;;;;;;;19.71;74.87;93643.50;511821;28;1898;-44
2023/08/17 01:15:57;;;;;;;5.25;4.05;;;;;;;19.68;74.97;93637.75;513832;28;848;-45
2023/08/17 01:16:15;;;;;;;4.38;3.97;;;;;;;19.68;75.05;93637.75;511874;28;1057;-45
2023/08/17 01:16:39;;;;;;;4.30;3.90;;;;;;;19.69;75.03;93635.69;509895;28;1644;-44
2023/08/17 01:17:05;;;;;;;4.15;3.72;;;;;;;19.69;74.93;93638.50;507927;29;955;-47
2023/08/17 01:17:39;;;;;;;3.92;3.63;;;;;;;19.68;75.04;93629.34;508435;28;888;-45
2023/08/17 01:18:00;;;;;;;4.22;3.83;;;;;;;19.68;75.10;93634.25;509696;29;2354;-46
2023/08/17 01:18:16;;;;;;;4.30;3.90;;;;;;;19.68;75.03;93623.03;511836;29;868;-45
2023/08/17 01:18:35;;;;;;;4.80;3.97;;;;;;;19.67;75.08;93627.91;511801;28;872;-45
2023/08/17 01:18:51;;;;;;;5.90;3.67;;;;;;;19.66;75.01;93632.03;513243;28;896;-45
2023/08/17 01:19:09;;;;;;;5.50;3.88;;;;;;;19.66;75.13;93628.50;511818;28;924;-45
2023/08/17 01:19:26;;;;;;;4.03;3.63;;;;;;;19.66;74.97;93622.91;511715;28;911;-44
2023/08/17 01:19:42;;;;;;;3.60;3.30;;;;;;;19.66;74.97;93634.13;512133;28;789;-46